map of ENC home
Great Circle Mapper logo
ENC - Airport
Location
City:  Nancy, France
Name:Essey
ICAO / IATA:LFSN / ENC

Details
Type:Airport (Aerodrome, Airfield)
Use:Public/Civil
Latitude:4841'32"N (48.692086)
Longitude:613'34"E (6.226050)
Elevation:751 ft (229 m)
Variation:1.3E (WMM2015 magnetic declination)
Runways:2
Longest:4593 × 131 ft (1400 × 40 m)

Time
Time Zone:UTC+1 (DST+2)
Local Time:

Weather
METAR:LFSN 210930Z AUTO 22006KT 190V270 9999 OVC043 06/04 Q1034

Related Locations
Nearby:
Farthest:CHT: 12070 mi / 19425 km
Waitangi [Tuuta], Chatham Islands, NZ

Find:

   beyond  
but within

Other Information
Maps:
NOTAMs:
Links:
Sources:

  
flag of France   

Sectional Chart

Flight Planning
at skyvector.com

Satellite Image

Google Maps Satellite View

 

Copyright © 2004-2014 Karl L. Swartz. All rights reserved.
The Great Circle Mapper name and logo are trademarks of the Great Circle Mapper.
All other trademarks mentioned herein belong to their respective owners.
Please see credits for attibutions and further copyright information.

  Follow gcmap on Facebook Follow gcmap on Twitter

hCard Microformat

Geo Microformat